Time;durP1;ratioP1;P1;durP2;ratioP2;P2;SDS_P1;SDS_P2;PMS_P1;PMS_P2;Temp;Humidity;BMP_temperature;BMP_pressure;BME280_temperature;BME280_humidity;BME280_pressure;Samples;Min_cycle;Max_cycle;Signal;HPM_P1;HPM_P2
2021/11/25 00:00:42;;;;;;;28.87;16.52;;;1.20;99.90;;;;;;476497;247;27409;-73
2021/11/25 00:02:44;;;;;;;30.45;17.15;;;1.10;99.90;;;;;;476453;247;27445;-73
2021/11/25 00:04:45;;;;;;;25.83;15.38;;;1.10;99.90;;;;;;476478;247;27864;-72
2021/11/25 00:06:46;;;;;;;27.20;14.65;;;1.10;99.90;;;;;;476523;247;27864;-72
2021/11/25 00:08:47;;;;;;;23.25;14.68;;;1.20;99.90;;;;;;476529;247;27447;-73
2021/11/25 00:10:49;;;;;;;27.62;15.35;;;1.20;99.90;;;;;;476488;247;27405;-73
2021/11/25 00:12:53;;;;;;;29.77;16.58;;;1.10;99.90;;;;;;476488;247;27453;-72
2021/11/25 00:14:51;;;;;;;26.95;15.18;;;1.10;99.90;;;;;;476363;249;27413;-72
2021/11/25 00:16:52;;;;;;;26.15;14.25;;;1.10;99.90;;;;;;476521;247;27404;-72
2021/11/25 00:18:54;;;;;;;22.90;14.18;;;1.10;99.90;;;;;;476516;247;27887;-72
2021/11/25 00:20:55;;;;;;;19.48;12.37;;;1.20;99.90;;;;;;476470;247;27931;-72
2021/11/25 00:22:56;;;;;;;23.17;13.62;;;1.30;99.90;;;;;;476468;247;27952;-73
2021/11/25 00:24:57;;;;;;;18.55;12.40;;;1.20;99.90;;;;;;476483;247;27533;-74
2021/11/25 00:26:59;;;;;;;21.75;13.13;;;1.30;99.90;;;;;;476514;247;27405;-73
2021/11/25 00:29:00;;;;;;;20.23;12.70;;;1.30;99.90;;;;;;476475;247;27475;-73
2021/11/25 00:31:01;;;;;;;20.42;12.60;;;1.20;99.90;;;;;;476459;247;27453;-73
2021/11/25 00:33:02;;;;;;;21.62;13.25;;;1.20;99.90;;;;;;476481;247;27457;-73
2021/11/25 00:35:04;;;;;;;26.20;13.23;;;1.30;99.90;;;;;;476478;247;28364;-74
2021/11/25 00:37:05;;;;;;;20.50;12.18;;;1.30;99.90;;;;;;476488;247;27937;-73
2021/11/25 00:39:06;;;;;;;23.45;14.50;;;1.30;99.90;;;;;;476490;247;27445;-73
2021/11/25 00:41:08;;;;;;;19.55;12.80;;;1.30;99.90;;;;;;476463;247;27397;-72
2021/11/25 00:43:09;;;;;;;23.80;14.63;;;1.30;99.90;;;;;;476500;247;27421;-73
2021/11/25 00:45:10;;;;;;;18.35;11.80;;;1.30;99.90;;;;;;476504;247;27491;-73
2021/11/25 00:47:11;;;;;;;19.83;12.80;;;1.20;99.90;;;;;;476502;247;27414;-72
2021/11/25 00:49:13;;;;;;;19.85;12.60;;;1.20;99.90;;;;;;476474;247;27515;-73
2021/11/25 00:51:14;;;;;;;22.62;12.80;;;1.30;99.90;;;;;;476457;247;28735;-73
2021/11/25 00:53:15;;;;;;;21.08;12.52;;;1.30;99.90;;;;;;476506;247;28042;-73
2021/11/25 00:55:16;;;;;;;21.62;12.25;;;1.40;99.90;;;;;;476470;247;27437;-73
2021/11/25 00:57:18;;;;;;;21.65;13.38;;;1.30;99.90;;;;;;476462;247;27408;-72
2021/11/25 00:59:19;;;;;;;23.33;14.05;;;1.10;99.90;;;;;;476441;247;27433;-73
2021/11/25 01:01:20;;;;;;;19.67;13.05;;;1.10;99.90;;;;;;476513;247;27457;-73
2021/11/25 01:03:21;;;;;;;17.92;11.55;;;1.10;99.90;;;;;;476469;247;27514;-73
2021/11/25 01:05:23;;;;;;;28.12;15.57;;;1.20;99.90;;;;;;476464;247;27939;-73
2021/11/25 01:07:24;;;;;;;27.02;15.73;;;1.00;99.90;;;;;;476467;247;27853;-72
2021/11/25 01:09:25;;;;;;;28.45;16.42;;;0.90;99.90;;;;;;476430;247;27971;-73
2021/11/25 01:11:26;;;;;;;26.98;16.25;;;0.90;99.90;;;;;;476495;247;27437;-74
2021/11/25 01:13:28;;;;;;;27.25;15.27;;;0.80;99.90;;;;;;476513;247;27397;-73
2021/11/25 01:15:29;;;;;;;27.30;14.63;;;0.80;99.90;;;;;;476464;247;27512;-73
2021/11/25 01:17:30;;;;;;;25.45;14.50;;;0.90;99.90;;;;;;476436;247;27440;-72
2021/11/25 01:19:31;;;;;;;27.02;15.88;;;0.90;99.90;;;;;;476453;247;27477;-73
2021/11/25 01:21:33;;;;;;;26.05;14.73;;;0.90;99.90;;;;;;476465;247;27917;-73
2021/11/25 01:23:34;;;;;;;31.02;16.75;;;0.90;99.90;;;;;;476466;247;27909;-72
2021/11/25 01:25:35;;;;;;;28.58;16.20;;;0.90;99.90;;;;;;476470;247;27441;-73
2021/11/25 01:27:36;;;;;;;26.42;15.48;;;0.80;99.90;;;;;;476487;247;27428;-72
2021/11/25 01:29:38;;;;;;;29.70;16.15;;;0.90;99.90;;;;;;476506;247;27406;-73
2021/11/25 01:31:39;;;;;;;26.73;14.13;;;1.00;99.90;;;;;;476503;247;27514;-73
2021/11/25 01:33:40;;;;;;;26.05;14.57;;;1.00;99.90;;;;;;476447;247;27449;-73
2021/11/25 01:35:41;;;;;;;24.90;13.65;;;0.90;99.90;;;;;;476436;247;27564;-73
2021/11/25 01:37:43;;;;;;;26.00;14.43;;;1.00;99.90;;;;;;476470;247;28291;-72
2021/11/25 01:39:44;;;;;;;25.55;15.10;;;0.90;99.90;;;;;;476486;247;27953;-72
2021/11/25 01:41:45;;;;;;;25.55;15.27;;;0.70;99.90;;;;;;476490;247;27429;-74
2021/11/25 01:43:46;;;;;;;24.92;14.80;;;0.80;99.90;;;;;;476461;247;27413;-72
2021/11/25 01:45:48;;;;;;;22.33;13.68;;;0.90;99.90;;;;;;476450;247;27437;-73
2021/11/25 01:47:49;;;;;;;22.50;13.57;;;1.00;99.90;;;;;;476495;247;27567;-73
2021/11/25 01:49:50;;;;;;;22.65;13.88;;;1.10;99.90;;;;;;476484;247;27452;-73
2021/11/25 01:51:52;;;;;;;19.33;12.90;;;1.10;99.90;;;;;;476487;247;27911;-73
2021/11/25 01:53:53;;;;;;;25.80;15.43;;;1.10;99.90;;;;;;476457;247;27855;-73
2021/11/25 01:55:54;;;;;;;27.17;14.55;;;1.00;99.90;;;;;;476462;247;27876;-73
2021/11/25 01:57:55;;;;;;;24.33;14.18;;;0.90;99.90;;;;;;476502;247;27433;-74
2021/11/25 01:59:57;;;;;;;23.40;15.00;;;0.90;99.90;;;;;;476484;247;27476;-72
2021/11/25 02:01:58;;;;;;;25.95;14.85;;;0.90;99.90;;;;;;476508;247;27428;-73
2021/11/25 02:03:59;;;;;;;29.17;15.45;;;0.90;99.90;;;;;;476446;247;27500;-72
2021/11/25 02:06:00;;;;;;;24.75;15.15;;;0.80;99.90;;;;;;476472;247;27445;-72
2021/11/25 02:08:02;;;;;;;23.10;14.40;;;0.70;99.90;;;;;;476483;247;27907;-74
2021/11/25 02:10:03;;;;;;;30.23;16.45;;;0.70;99.90;;;;;;476434;247;27871;-72
2021/11/25 02:12:04;;;;;;;24.63;14.70;;;0.70;99.90;;;;;;476451;247;27512;-73
2021/11/25 02:14:05;;;;;;;28.10;15.10;;;0.80;99.90;;;;;;476463;247;27405;-73
2021/11/25 02:16:07;;;;;;;29.70;16.08;;;0.80;99.90;;;;;;476493;247;27498;-72
2021/11/25 02:18:08;;;;;;;26.67;15.07;;;0.80;99.90;;;;;;476488;247;27429;-73
2021/11/25 02:20:09;;;;;;;23.92;14.45;;;0.80;99.90;;;;;;476489;247;27410;-72
2021/11/25 02:22:10;;;;;;;22.35;13.80;;;0.90;99.90;;;;;;476516;247;27543;-73
2021/11/25 02:24:12;;;;;;;21.33;13.15;;;0.90;99.90;;;;;;476483;247;28638;-72
2021/11/25 02:26:13;;;;;;;22.48;13.40;;;0.90;99.90;;;;;;476502;247;27864;-72
2021/11/25 02:28:14;;;;;;;23.23;15.20;;;0.70;99.90;;;;;;476521;247;27448;-73
2021/11/25 02:30:15;;;;;;;26.83;15.43;;;0.70;99.90;;;;;;476447;247;27389;-73
2021/11/25 02:32:17;;;;;;;27.13;15.90;;;0.60;99.90;;;;;;476470;247;27527;-72
2021/11/25 02:34:18;;;;;;;25.35;13.52;;;0.60;99.90;;;;;;476492;247;27433;-73
2021/11/25 02:36:19;;;;;;;26.98;16.02;;;0.60;99.90;;;;;;476517;247;27417;-73
2021/11/25 02:38:20;;;;;;;28.38;16.08;;;0.60;99.90;;;;;;476467;247;27455;-73
2021/11/25 02:40:22;;;;;;;27.65;14.43;;;0.50;99.90;;;;;;476465;247;27856;-73
2021/11/25 02:42:23;;;;;;;23.75;14.30;;;0.60;99.90;;;;;;476440;247;27990;-72
2021/11/25 02:44:24;;;;;;;23.80;14.25;;;0.60;99.90;;;;;;476482;247;27478;-73
2021/11/25 02:46:25;;;;;;;25.33;14.07;;;0.60;99.90;;;;;;476491;247;27546;-72
2021/11/25 02:48:27;;;;;;;27.13;14.90;;;0.60;99.90;;;;;;476462;247;27512;-72
2021/11/25 02:50:28;;;;;;;29.42;15.18;;;0.40;99.90;;;;;;476474;247;27396;-72
2021/11/25 02:52:29;;;;;;;30.45;15.80;;;0.40;99.90;;;;;;476479;247;27405;-72
2021/11/25 02:54:30;;;;;;;22.92;15.05;;;0.40;99.90;;;;;;476481;247;28004;-74
2021/11/25 02:56:32;;;;;;;31.65;16.45;;;0.50;99.90;;;;;;476446;247;27957;-72
2021/11/25 02:58:33;;;;;;;23.23;14.05;;;0.70;99.90;;;;;;476381;247;27559;-73
2021/11/25 03:00:34;;;;;;;26.80;13.88;;;0.80;99.90;;;;;;476352;247;27397;-72
2021/11/25 03:02:35;;;;;;;21.90;12.82;;;0.80;99.90;;;;;;476421;247;27468;-73
2021/11/25 03:04:37;;;;;;;19.10;12.10;;;0.80;99.90;;;;;;476430;247;27430;-72
2021/11/25 03:06:38;;;;;;;19.77;11.85;;;0.80;99.90;;;;;;476414;247;27416;-72
2021/11/25 03:08:39;;;;;;;18.20;10.88;;;0.90;99.90;;;;;;476396;247;27512;-72
2021/11/25 03:10:41;;;;;;;17.95;11.20;;;0.90;99.90;;;;;;476386;247;28764;-72
2021/11/25 03:12:42;;;;;;;20.92;11.30;;;0.80;99.90;;;;;;476439;247;27945;-73
2021/11/25 03:14:43;;;;;;;22.55;12.35;;;0.70;99.90;;;;;;476433;247;27448;-73
2021/11/25 03:16:44;;;;;;;20.62;12.30;;;0.70;99.90;;;;;;476416;247;27410;-72
2021/11/25 03:18:46;;;;;;;19.40;12.57;;;0.70;99.90;;;;;;476431;247;27430;-74
2021/11/25 03:20:47;;;;;;;22.98;13.68;;;0.70;99.90;;;;;;476475;247;27500;-73
2021/11/25 03:22:48;;;;;;;25.05;14.40;;;0.70;99.90;;;;;;476478;247;27464;-72
2021/11/25 03:24:49;;;;;;;24.50;13.95;;;0.60;99.90;;;;;;476473;247;27689;-73
2021/11/25 03:26:51;;;;;;;25.27;14.00;;;0.60;99.90;;;;;;476467;247;27973;-72
2021/11/25 03:28:52;;;;;;;27.33;15.20;;;0.70;99.90;;;;;;476452;247;27935;-73
2021/11/25 03:30:56;;;;;;;29.60;15.93;;;0.50;99.90;;;;;;476498;247;27523;-74
2021/11/25 03:32:57;;;;;;;25.95;15.05;;;0.50;99.90;;;;;;476488;247;27437;-73
2021/11/25 03:34:59;;;;;;;30.42;16.80;;;0.50;99.90;;;;;;476485;247;27398;-72
2021/11/25 03:37:00;;;;;;;27.33;15.85;;;0.40;99.90;;;;;;476464;247;27472;-72
2021/11/25 03:39:01;;;;;;;28.40;16.50;;;0.50;99.90;;;;;;476499;247;28082;-72
2021/11/25 03:41:02;;;;;;;27.92;16.08;;;0.40;99.90;;;;;;476517;247;28957;-72
2021/11/25 03:43:04;;;;;;;32.55;18.65;;;0.30;99.90;;;;;;476500;247;27465;-72
2021/11/25 03:45:05;;;;;;;27.65;16.33;;;0.40;99.90;;;;;;476498;247;27496;-72
2021/11/25 03:47:06;;;;;;;28.35;16.23;;;0.50;99.90;;;;;;476441;247;27537;-73
2021/11/25 03:49:08;;;;;;;31.62;17.12;;;0.40;99.90;;;;;;476500;247;27441;-72
2021/11/25 03:51:10;;;;;;;32.60;18.35;;;0.20;99.90;;;;;;476480;247;27451;-74
2021/11/25 03:53:11;;;;;;;32.63;17.40;;;0.20;99.90;;;;;;476498;247;27904;-71
2021/11/25 03:55:12;;;;;;;30.58;17.23;;;0.30;99.90;;;;;;476475;247;27991;-72
2021/11/25 03:57:14;;;;;;;33.17;19.15;;;0.30;99.90;;;;;;476490;247;27465;-72
2021/11/25 03:59:15;;;;;;;38.17;20.45;;;0.20;99.90;;;;;;476507;247;27396;-73
2021/11/25 04:01:16;;;;;;;32.40;18.75;;;0.10;99.90;;;;;;476491;247;27504;-73
2021/11/25 04:03:17;;;;;;;30.00;17.08;;;0.10;99.90;;;;;;476472;247;27386;-72
2021/11/25 04:05:19;;;;;;;31.67;18.20;;;0.30;99.90;;;;;;476476;247;27426;-73
2021/11/25 04:07:20;;;;;;;31.87;18.25;;;0.20;99.90;;;;;;476490;247;27544;-73
2021/11/25 04:09:21;;;;;;;32.78;17.30;;;0.30;99.90;;;;;;476465;247;27883;-73
2021/11/25 04:11:22;;;;;;;27.08;17.05;;;0.30;99.90;;;;;;476488;247;29001;-72
2021/11/25 04:13:24;;;;;;;31.02;15.50;;;0.20;99.90;;;;;;476484;247;27400;-72
2021/11/25 04:15:25;;;;;;;28.92;16.33;;;0.30;99.90;;;;;;476480;247;27429;-72
2021/11/25 04:17:26;;;;;;;24.60;14.40;;;0.40;99.90;;;;;;476496;247;27437;-74
2021/11/25 04:19:27;;;;;;;28.12;15.68;;;0.50;99.90;;;;;;476477;247;27412;-72
2021/11/25 04:21:29;;;;;;;28.80;15.98;;;0.60;99.90;;;;;;476479;247;27433;-73
2021/11/25 04:23:30;;;;;;;28.60;16.20;;;0.50;99.90;;;;;;476493;247;27400;-72
2021/11/25 04:25:33;;;;;;;32.72;18.25;;;0.50;99.90;;;;;;476505;247;27919;-72
2021/11/25 04:27:32;;;;;;;32.75;17.77;;;0.50;99.90;;;;;;476409;249;27900;-73
2021/11/25 04:29:37;;;;;;;31.73;17.83;;;0.40;99.90;;;;;;476461;247;27582;-73
2021/11/25 04:36:14;;;;;;;24.87;15.57;;;0.60;99.90;;;;;;476452;249;27497;-72
2021/11/25 04:38:19;;;;;;;23.05;15.02;;;0.60;99.90;;;;;;476512;247;27497;-72
2021/11/25 04:40:17;;;;;;;29.98;17.02;;;0.60;99.90;;;;;;476463;247;27439;-74
2021/11/25 04:42:18;;;;;;;26.52;15.55;;;0.50;99.90;;;;;;476500;247;27841;-72
2021/11/25 04:44:19;;;;;;;35.45;17.45;;;0.40;99.90;;;;;;476465;247;27955;-74
2021/11/25 04:46:20;;;;;;;33.80;18.12;;;0.50;99.90;;;;;;476366;247;27512;-72
2021/11/25 04:48:22;;;;;;;34.15;18.48;;;0.50;99.90;;;;;;476353;247;27405;-72
2021/11/25 04:50:23;;;;;;;34.25;17.80;;;0.30;99.90;;;;;;476256;247;27551;-72
2021/11/25 04:52:24;;;;;;;28.98;17.60;;;0.30;99.90;;;;;;476259;247;27473;-72
2021/11/25 04:54:25;;;;;;;28.83;17.20;;;0.40;99.90;;;;;;475974;247;27453;-72
2021/11/25 04:56:27;;;;;;;27.90;15.15;;;0.50;99.90;;;;;;476513;247;27438;-73
2021/11/25 04:58:28;;;;;;;28.12;16.30;;;0.60;99.90;;;;;;476467;247;27857;-73
2021/11/25 05:00:29;;;;;;;36.05;18.90;;;0.50;99.90;;;;;;476494;247;27907;-73
2021/11/25 05:02:30;;;;;;;32.53;17.10;;;0.30;99.90;;;;;;476485;247;27525;-73
2021/11/25 05:04:32;;;;;;;29.60;17.27;;;0.40;99.90;;;;;;476443;247;27528;-74
2021/11/25 05:06:35;;;;;;;35.95;19.42;;;0.50;99.90;;;;;;476483;247;27513;-74
2021/11/25 05:08:34;;;;;;;33.95;17.30;;;0.30;99.90;;;;;;476441;249;27392;-73
2021/11/25 05:10:35;;;;;;;32.35;18.00;;;0.30;99.90;;;;;;476465;247;27468;-73
2021/11/25 05:12:39;;;;;;;34.15;18.75;;;0.40;99.90;;;;;;476461;247;27401;-72
2021/11/25 05:14:41;;;;;;;34.08;18.85;;;0.40;99.90;;;;;;476472;247;27924;-72
2021/11/25 05:16:43;;;;;;;32.42;17.85;;;0.50;99.90;;;;;;476455;247;29065;-73
2021/11/25 05:18:43;;;;;;;31.50;17.20;;;0.50;99.90;;;;;;476460;249;27432;-73
2021/11/25 05:20:45;;;;;;;27.55;16.20;;;0.50;99.90;;;;;;476479;247;27480;-72
2021/11/25 05:22:46;;;;;;;39.10;19.50;;;0.50;99.90;;;;;;476442;247;27432;-73
2021/11/25 05:24:47;;;;;;;36.38;19.15;;;0.30;99.90;;;;;;476497;247;27421;-73
2021/11/25 05:26:49;;;;;;;44.80;21.60;;;0.30;99.90;;;;;;476508;247;27530;-72
2021/11/25 05:28:49;;;;;;;41.92;22.13;;;0.10;99.90;;;;;;476465;247;27957;-73
2021/11/25 05:30:51;;;;;;;37.00;20.02;;;0.10;99.90;;;;;;476482;247;28001;-71
2021/11/25 05:32:52;;;;;;;40.63;22.40;;;0.20;99.90;;;;;;476488;247;27460;-73
2021/11/25 05:34:53;;;;;;;37.45;20.48;;;0.10;99.90;;;;;;476445;247;27407;-72
2021/11/25 05:36:54;;;;;;;38.72;19.70;;;0.10;99.90;;;;;;476493;247;27536;-72
2021/11/25 05:38:56;;;;;;;34.50;18.87;;;0.20;99.90;;;;;;476487;247;27441;-72
2021/11/25 05:40:57;;;;;;;32.22;18.65;;;0.30;99.90;;;;;;476488;247;27408;-73
2021/11/25 05:42:58;;;;;;;41.05;20.83;;;0.40;99.90;;;;;;476456;247;27437;-73
2021/11/25 05:44:59;;;;;;;39.25;21.20;;;0.20;99.90;;;;;;476490;247;28065;-73
2021/11/25 05:47:01;;;;;;;33.65;18.67;;;0.20;99.90;;;;;;476486;247;27937;-72
2021/11/25 05:49:02;;;;;;;40.47;19.33;;;0.20;99.90;;;;;;476471;247;27441;-73
2021/11/25 05:51:03;;;;;;;40.38;20.23;;;0.30;99.90;;;;;;476446;247;27396;-73
2021/11/25 05:53:04;;;;;;;36.55;19.35;;;0.20;99.90;;;;;;476449;247;27523;-72
2021/11/25 05:55:06;;;;;;;37.25;18.65;;;0.10;99.90;;;;;;476450;247;27465;-73
2021/11/25 05:57:07;;;;;;;33.03;17.98;;;0.20;99.90;;;;;;476468;247;27521;-72
2021/11/25 05:59:08;;;;;;;33.10;19.12;;;0.20;99.90;;;;;;476467;247;27441;-73
2021/11/25 06:01:09;;;;;;;31.83;18.60;;;0.40;99.90;;;;;;476423;247;27864;-73
2021/11/25 06:03:11;;;;;;;35.15;19.90;;;0.40;99.90;;;;;;476435;247;28009;-72
2021/11/25 06:05:12;;;;;;;32.05;17.73;;;0.40;99.90;;;;;;476467;247;27520;-73
2021/11/25 06:07:13;;;;;;;35.35;19.30;;;0.40;99.90;;;;;;476481;247;27476;-72
2021/11/25 06:09:15;;;;;;;36.97;18.95;;;0.40;99.90;;;;;;476481;247;27504;-73
2021/11/25 06:11:16;;;;;;;37.03;18.85;;;0.30;99.90;;;;;;476470;247;27463;-72
2021/11/25 06:13:17;;;;;;;32.88;19.08;;;0.20;99.90;;;;;;476468;247;27400;-73
2021/11/25 06:15:18;;;;;;;37.55;19.62;;;0.20;99.90;;;;;;476493;247;27901;-72
2021/11/25 06:17:20;;;;;;;37.97;20.10;;;0.20;99.90;;;;;;476483;247;27951;-71
2021/11/25 06:19:21;;;;;;;39.65;19.52;;;0.30;99.90;;;;;;476447;247;27457;-72
2021/11/25 06:21:22;;;;;;;37.88;19.33;;;0.30;99.90;;;;;;476476;247;27472;-72
2021/11/25 06:23:23;;;;;;;32.88;18.12;;;0.10;99.90;;;;;;476509;247;27409;-72
2021/11/25 06:25:25;;;;;;;34.63;17.65;;;0.10;99.90;;;;;;476496;247;27556;-73
2021/11/25 06:27:26;;;;;;;39.05;19.52;;;0.20;99.90;;;;;;476434;247;27388;-73
2021/11/25 06:29:27;;;;;;;34.78;18.50;;;0.30;99.90;;;;;;476473;247;27489;-73
2021/11/25 06:31:28;;;;;;;33.95;18.17;;;0.30;99.90;;;;;;476486;247;27959;-73
2021/11/25 06:33:30;;;;;;;37.60;20.10;;;0.30;99.90;;;;;;476489;247;27971;-72
2021/11/25 06:35:31;;;;;;;33.33;18.42;;;0.30;99.90;;;;;;476477;247;27495;-72
2021/11/25 06:37:32;;;;;;;33.33;18.48;;;0.30;99.90;;;;;;476456;247;27408;-73
2021/11/25 06:39:33;;;;;;;36.45;18.50;;;0.40;99.90;;;;;;476488;247;27497;-72
2021/11/25 06:41:35;;;;;;;33.05;18.17;;;0.40;99.90;;;;;;476462;247;27444;-74
2021/11/25 06:43:36;;;;;;;37.08;18.37;;;0.40;99.90;;;;;;476479;247;27406;-73
2021/11/25 06:45:37;;;;;;;29.63;17.27;;;0.30;99.90;;;;;;476440;247;27533;-73
2021/11/25 06:47:38;;;;;;;35.30;17.10;;;0.30;99.90;;;;;;476465;247;27884;-72
2021/11/25 06:49:40;;;;;;;31.75;16.30;;;0.40;99.90;;;;;;476465;247;28026;-73
2021/11/25 06:51:41;;;;;;;27.20;15.38;;;0.40;99.90;;;;;;476457;247;27449;-73
2021/11/25 06:53:43;;;;;;;30.35;16.67;;;0.40;99.90;;;;;;476250;247;27440;-72
2021/11/25 06:55:43;;;;;;;28.45;16.73;;;0.30;99.90;;;;;;476432;247;27516;-73
2021/11/25 06:57:48;;;;;;;28.98;15.80;;;0.40;99.90;;;;;;476526;247;27409;-73
2021/11/25 06:59:46;;;;;;;29.35;15.82;;;0.40;99.90;;;;;;476299;249;27397;-72
2021/11/25 07:01:47;;;;;;;22.80;13.75;;;0.50;99.90;;;;;;476485;247;27910;-73
2021/11/25 07:03:48;;;;;;;32.45;16.73;;;0.50;99.90;;;;;;476481;247;27855;-72
2021/11/25 07:05:50;;;;;;;27.50;15.15;;;0.40;99.90;;;;;;476472;247;27950;-72
2021/11/25 07:07:51;;;;;;;32.33;18.02;;;0.30;99.90;;;;;;476460;247;27469;-72
2021/11/25 07:09:52;;;;;;;26.37;16.95;;;0.30;99.90;;;;;;476458;247;27501;-72
2021/11/25 07:11:53;;;;;;;29.87;15.18;;;0.30;99.90;;;;;;476452;247;27516;-73
2021/11/25 07:13:55;;;;;;;29.42;15.82;;;0.30;99.90;;;;;;476477;247;27402;-72
2021/11/25 07:15:56;;;;;;;28.25;15.30;;;0.30;99.90;;;;;;476486;247;27542;-73
2021/11/25 07:17:57;;;;;;;24.30;14.82;;;0.40;99.90;;;;;;476509;247;27927;-73
2021/11/25 07:19:59;;;;;;;27.90;15.35;;;0.40;99.90;;;;;;476450;247;27938;-73
2021/11/25 07:22:00;;;;;;;29.10;14.70;;;0.30;99.90;;;;;;476474;247;27432;-72
2021/11/25 07:24:01;;;;;;;27.83;15.48;;;0.30;99.90;;;;;;476455;247;27444;-72
2021/11/25 07:26:07;;;;;;;24.48;13.62;;;0.40;99.90;;;;;;476431;247;27511;-72
2021/11/25 07:28:04;;;;;;;27.10;14.80;;;0.40;99.90;;;;;;476214;249;27516;-73
2021/11/25 07:30:05;;;;;;;26.80;16.33;;;0.50;99.90;;;;;;476459;247;27503;-73
2021/11/25 07:32:06;;;;;;;27.52;14.35;;;0.40;99.90;;;;;;476438;247;27460;-73
2021/11/25 07:34:07;;;;;;;24.60;13.85;;;0.40;99.90;;;;;;476450;247;27869;-72
2021/11/25 07:36:09;;;;;;;26.00;14.65;;;0.50;99.90;;;;;;476485;247;27943;-73
2021/11/25 07:38:10;;;;;;;26.35;14.90;;;0.50;99.90;;;;;;476485;247;27559;-74
2021/11/25 07:40:11;;;;;;;26.27;13.70;;;0.60;99.90;;;;;;476470;247;27526;-73
2021/11/25 07:42:12;;;;;;;24.42;15.05;;;0.50;99.90;;;;;;476462;247;27437;-73
2021/11/25 07:44:14;;;;;;;28.35;15.02;;;0.50;99.90;;;;;;476435;247;27412;-72
2021/11/25 07:46:15;;;;;;;24.58;13.48;;;0.40;99.90;;;;;;476476;247;27404;-73
2021/11/25 07:48:16;;;;;;;26.62;14.48;;;0.40;99.90;;;;;;476455;247;27822;-73
2021/11/25 07:50:25;;;;;;;27.83;14.82;;;0.50;99.90;;;;;;476503;247;27954;-73
2021/11/25 07:52:22;;;;;;;28.02;14.70;;;0.60;99.90;;;;;;476254;249;27521;-72
2021/11/25 07:54:23;;;;;;;29.37;15.25;;;0.40;99.90;;;;;;476452;247;27437;-72
2021/11/25 07:56:24;;;;;;;24.75;14.18;;;0.50;99.90;;;;;;476478;247;27513;-74
2021/11/25 07:58:27;;;;;;;26.58;14.48;;;0.50;99.90;;;;;;476422;247;27402;-72
2021/11/25 08:00:28;;;;;;;26.92;15.20;;;0.40;99.90;;;;;;476379;249;27422;-73
2021/11/25 08:02:28;;;;;;;27.13;14.15;;;0.40;99.90;;;;;;476405;247;27398;-72
2021/11/25 08:04:29;;;;;;;26.50;15.63;;;0.50;99.90;;;;;;476472;247;27951;-72
2021/11/25 08:06:30;;;;;;;25.12;14.68;;;0.30;99.90;;;;;;476473;247;28001;-73
2021/11/25 08:08:32;;;;;;;27.52;15.20;;;0.40;99.90;;;;;;476451;247;27517;-72
2021/11/25 08:10:33;;;;;;;26.73;14.35;;;0.40;99.90;;;;;;476436;247;27429;-73
2021/11/25 08:12:34;;;;;;;27.77;14.30;;;0.50;99.90;;;;;;476457;247;27417;-72
2021/11/25 08:14:35;;;;;;;26.98;14.25;;;0.50;99.90;;;;;;476464;247;27412;-73
2021/11/25 08:16:38;;;;;;;26.23;14.48;;;0.50;99.90;;;;;;476450;247;27440;-72
2021/11/25 08:18:38;;;;;;;29.70;14.95;;;0.50;99.90;;;;;;476380;249;27406;-72
2021/11/25 08:20:39;;;;;;;22.50;13.57;;;0.50;99.90;;;;;;476459;247;27924;-72
2021/11/25 08:22:40;;;;;;;26.40;14.48;;;0.50;99.90;;;;;;476477;247;27987;-74
2021/11/25 08:24:42;;;;;;;27.00;14.15;;;0.50;99.90;;;;;;476438;247;27851;-72
2021/11/25 08:26:43;;;;;;;27.80;13.68;;;0.60;99.90;;;;;;476469;247;27560;-73
2021/11/25 08:28:44;;;;;;;26.35;14.57;;;0.60;99.90;;;;;;476490;247;27413;-72
2021/11/25 08:30:46;;;;;;;27.85;14.85;;;0.60;99.90;;;;;;476466;247;27441;-73
2021/11/25 08:32:47;;;;;;;25.98;14.87;;;0.60;99.90;;;;;;476462;247;27434;-73
2021/11/25 08:34:48;;;;;;;22.55;12.45;;;0.70;99.90;;;;;;476484;247;27865;-72
2021/11/25 08:36:49;;;;;;;24.00;13.23;;;0.70;99.90;;;;;;476503;247;28031;-73
2021/11/25 08:38:50;;;;;;;26.25;13.02;;;0.70;99.90;;;;;;476476;247;27400;-73
2021/11/25 08:40:52;;;;;;;24.35;12.30;;;0.90;99.90;;;;;;476467;247;27439;-72
2021/11/25 08:42:54;;;;;;;23.65;12.70;;;0.80;99.90;;;;;;476489;247;27524;-73
2021/11/25 08:44:54;;;;;;;20.10;12.00;;;0.80;99.90;;;;;;476443;247;27400;-72
2021/11/25 08:46:56;;;;;;;23.73;13.57;;;0.80;99.90;;;;;;476450;247;27485;-73
2021/11/25 08:48:57;;;;;;;22.60;12.37;;;0.90;99.90;;;;;;476470;247;27491;-72
2021/11/25 08:50:58;;;;;;;23.77;13.90;;;0.80;99.90;;;;;;476499;247;27940;-72
2021/11/25 08:52:59;;;;;;;25.62;13.02;;;0.80;99.90;;;;;;476443;247;28007;-73
2021/11/25 08:55:01;;;;;;;20.95;11.70;;;0.80;99.90;;;;;;476472;247;27396;-73
2021/11/25 08:57:02;;;;;;;22.92;12.00;;;0.80;99.90;;;;;;476444;247;27457;-73
2021/11/25 08:59:03;;;;;;;17.40;11.05;;;0.80;99.90;;;;;;476434;247;27451;-72
2021/11/25 09:01:04;;;;;;;18.62;11.75;;;0.90;99.90;;;;;;476452;247;27496;-73
2021/11/25 09:03:06;;;;;;;22.67;12.35;;;0.90;99.90;;;;;;476502;247;27433;-73
2021/11/25 09:05:07;;;;;;;25.48;14.02;;;0.80;99.90;;;;;;476519;247;27414;-72
2021/11/25 09:07:08;;;;;;;27.15;13.93;;;0.70;99.90;;;;;;476486;247;27903;-73
2021/11/25 09:09:09;;;;;;;25.65;14.23;;;0.70;99.90;;;;;;476502;247;27903;-73
2021/11/25 09:11:11;;;;;;;23.75;13.88;;;0.80;99.90;;;;;;476498;247;27405;-72
2021/11/25 09:13:12;;;;;;;23.10;13.50;;;0.70;99.90;;;;;;476508;247;27559;-73
2021/11/25 09:15:13;;;;;;;25.95;14.98;;;0.70;99.90;;;;;;476490;247;27464;-72
2021/11/25 09:17:14;;;;;;;23.35;14.18;;;0.70;99.90;;;;;;476520;247;27501;-73
2021/11/25 09:19:16;;;;;;;25.95;14.70;;;0.70;99.90;;;;;;476506;247;27434;-73
2021/11/25 09:21:17;;;;;;;23.25;13.30;;;0.60;99.90;;;;;;476480;247;27869;-72
2021/11/25 09:23:18;;;;;;;30.10;15.98;;;0.70;99.90;;;;;;476442;247;28039;-73
2021/11/25 09:25:19;;;;;;;27.25;15.32;;;0.80;99.90;;;;;;476458;247;27408;-72
2021/11/25 09:27:21;;;;;;;24.83;14.15;;;0.80;99.90;;;;;;476499;247;27409;-72
2021/11/25 09:29:22;;;;;;;23.17;13.07;;;0.90;99.90;;;;;;476490;247;27535;-73
2021/11/25 09:31:23;;;;;;;25.58;14.80;;;0.80;99.90;;;;;;476474;247;27397;-72
2021/11/25 09:33:24;;;;;;;24.92;15.68;;;0.70;99.90;;;;;;476465;247;27545;-72
2021/11/25 09:35:26;;;;;;;27.25;15.63;;;0.70;99.90;;;;;;476499;247;27848;-73
2021/11/25 09:37:29;;;;;;;22.80;13.62;;;0.70;99.90;;;;;;476479;247;27843;-72
2021/11/25 09:39:29;;;;;;;23.10;13.70;;;0.70;99.90;;;;;;476415;247;28033;-73
2021/11/25 09:41:29;;;;;;;23.25;14.30;;;0.80;99.90;;;;;;476467;247;27386;-72
2021/11/25 09:43:31;;;;;;;27.00;14.45;;;0.80;99.90;;;;;;476471;247;27554;-73
2021/11/25 09:45:32;;;;;;;26.67;14.75;;;0.70;99.90;;;;;;476490;247;27528;-73
2021/11/25 09:47:33;;;;;;;30.40;16.50;;;0.70;99.90;;;;;;476459;247;27392;-73
2021/11/25 09:49:34;;;;;;;24.30;14.25;;;0.70;99.90;;;;;;476471;247;27449;-74
2021/11/25 09:51:36;;;;;;;26.52;14.38;;;0.80;99.90;;;;;;476459;247;27402;-72
2021/11/25 09:53:37;;;;;;;25.55;14.18;;;0.80;99.90;;;;;;476434;247;27864;-73
2021/11/25 09:55:38;;;;;;;24.63;13.60;;;0.80;99.90;;;;;;476497;247;27955;-74
2021/11/25 09:57:39;;;;;;;28.42;15.65;;;0.90;99.90;;;;;;476223;247;27486;-72
2021/11/25 09:59:41;;;;;;;27.05;15.98;;;0.80;99.90;;;;;;476456;247;27437;-72
2021/11/25 10:01:42;;;;;;;31.17;16.00;;;0.80;99.90;;;;;;476433;247;27436;-72
2021/11/25 10:03:48;;;;;;;22.73;14.13;;;0.90;99.90;;;;;;476487;247;27409;-73
2021/11/25 10:05:45;;;;;;;27.80;16.12;;;1.00;99.90;;;;;;476168;249;27544;-73
2021/11/25 10:07:47;;;;;;;29.12;15.07;;;1.00;99.90;;;;;;476452;247;27877;-73
2021/11/25 10:09:47;;;;;;;30.98;16.17;;;0.90;99.90;;;;;;476389;249;27920;-73
2021/11/25 10:11:48;;;;;;;28.90;15.57;;;1.00;99.90;;;;;;476459;247;27983;-72
2021/11/25 10:13:54;;;;;;;28.70;15.57;;;1.00;99.90;;;;;;476503;247;27404;-73
2021/11/25 10:15:51;;;;;;;29.50;15.80;;;1.00;99.90;;;;;;476222;249;27532;-72
2021/11/25 10:17:52;;;;;;;25.67;14.27;;;1.00;99.90;;;;;;476457;247;27471;-72
2021/11/25 10:19:53;;;;;;;27.75;15.48;;;1.20;99.90;;;;;;476436;247;27499;-73
2021/11/25 10:21:56;;;;;;;24.23;14.40;;;0.90;99.90;;;;;;476418;247;27901;-74
2021/11/25 10:23:56;;;;;;;30.55;16.55;;;0.90;99.90;;;;;;476373;249;28726;-72
2021/11/25 10:25:57;;;;;;;31.23;15.88;;;1.00;99.90;;;;;;476489;247;27865;-74